createdAt,value
2023-03-29T00:19:43.609Z,503.00
2023-03-29T00:23:43.782Z,501.00
2023-03-29T00:27:44.040Z,503.00
2023-03-29T00:31:44.205Z,504.00
2023-03-29T00:35:44.395Z,506.00
2023-03-29T00:39:44.588Z,505.00
2023-03-29T00:43:44.799Z,507.00
2023-03-29T00:47:45.078Z,505.00
2023-03-29T00:51:45.212Z,503.00
2023-03-29T00:55:45.455Z,500.00
2023-03-29T00:59:45.688Z,511.00
2023-03-29T01:03:45.944Z,511.00
2023-03-29T01:07:46.075Z,506.00
2023-03-29T01:11:46.335Z,504.00
2023-03-29T01:15:46.514Z,500.00
2023-03-29T01:19:46.733Z,509.00
2023-03-29T01:23:46.691Z,502.00
2023-03-29T01:27:46.646Z,504.00
2023-03-29T01:31:46.682Z,506.00
2023-03-29T01:35:46.609Z,509.00
2023-03-29T01:39:46.533Z,507.00
2023-03-29T01:43:46.527Z,502.00
2023-03-29T01:47:46.498Z,509.00
2023-03-29T01:51:46.456Z,504.00
2023-03-29T01:55:46.397Z,503.00
2023-03-29T01:59:46.357Z,510.00
2023-03-29T02:03:46.377Z,506.00
2023-03-29T02:07:46.290Z,504.00
2023-03-29T02:11:46.254Z,500.00
2023-03-29T02:15:46.257Z,506.00
2023-03-29T02:19:46.205Z,502.00
2023-03-29T02:23:46.164Z,504.00
2023-03-29T02:27:46.152Z,504.00
2023-03-29T02:31:46.097Z,505.00
2023-03-29T02:35:46.083Z,509.00
2023-03-29T02:39:46.038Z,505.00
2023-03-29T02:43:46.157Z,508.00
2023-03-29T02:47:46.164Z,500.00
2023-03-29T02:51:46.097Z,509.00
2023-03-29T02:55:46.067Z,502.00
2023-03-29T02:59:46.029Z,506.00
2023-03-29T03:03:46.110Z,504.00
2023-03-29T03:07:45.983Z,507.00
2023-03-29T03:11:45.937Z,507.00
2023-03-29T03:15:45.904Z,505.00
2023-03-29T03:19:45.864Z,506.00
2023-03-29T03:23:45.931Z,512.00
2023-03-29T03:27:45.874Z,505.00
2023-03-29T03:31:45.868Z,510.00
2023-03-29T03:35:45.870Z,507.00
2023-03-29T03:39:45.771Z,508.00
2023-03-29T03:43:45.735Z,502.00
2023-03-29T03:47:45.738Z,502.00
2023-03-29T03:51:45.695Z,506.00
2023-03-29T03:55:45.635Z,503.00
2023-03-29T03:59:45.556Z,511.00
2023-03-29T04:03:45.766Z,500.00
2023-03-29T04:07:45.864Z,507.00
2023-03-29T04:11:46.061Z,504.00
2023-03-29T04:15:46.296Z,502.00
2023-03-29T04:19:46.369Z,505.00
2023-03-29T04:23:46.626Z,504.00
2023-03-29T04:27:46.722Z,508.00
2023-03-29T04:31:46.943Z,506.00
2023-03-29T04:35:47.102Z,513.00
2023-03-29T04:39:47.142Z,512.00
2023-03-29T04:43:47.309Z,506.00
2023-03-29T04:47:47.390Z,504.00
2023-03-29T04:51:47.524Z,506.00
2023-03-29T04:55:47.863Z,500.00
2023-03-29T04:59:47.689Z,522.00
2023-03-29T05:03:47.659Z,551.00
2023-03-29T05:07:47.599Z,579.00
2023-03-29T05:11:47.559Z,608.00
2023-03-29T05:15:47.649Z,657.00
2023-03-29T05:19:47.516Z,752.00
2023-03-29T05:23:47.447Z,792.00
2023-03-29T05:27:47.423Z,859.00
2023-03-29T05:31:47.422Z,934.00
2023-03-29T05:35:47.418Z,982.00
2023-03-29T05:39:47.602Z,1015.00
2023-03-29T05:43:47.335Z,1169.00
2023-03-29T05:47:47.311Z,1541.00
2023-03-29T05:51:47.602Z,1305.00
2023-03-29T05:55:47.630Z,1464.00
2023-03-29T05:59:47.166Z,1586.00
2023-03-29T06:03:47.329Z,1685.00
2023-03-29T06:07:47.137Z,1747.00
2023-03-29T06:11:47.120Z,1848.00
2023-03-29T06:15:47.047Z,1883.00
2023-03-29T06:19:47.023Z,1934.00
2023-03-29T06:23:46.978Z,1989.00
2023-03-29T06:27:46.943Z,2041.00
2023-03-29T06:31:47.027Z,2068.00
2023-03-29T06:35:47.197Z,2075.00
2023-03-29T06:39:47.134Z,2121.00
2023-03-29T06:43:47.249Z,2083.00
2023-03-29T06:47:47.636Z,2056.00
2023-03-29T06:51:47.494Z,2047.00
2023-03-29T06:55:47.679Z,2070.00
2023-03-29T06:59:48.147Z,2109.00
2023-03-29T07:03:48.201Z,2140.00
2023-03-29T07:07:47.846Z,2153.00
2023-03-29T07:11:47.845Z,2186.00
2023-03-29T07:15:48.174Z,2210.00
2023-03-29T07:19:47.825Z,2235.00
2023-03-29T07:23:48.153Z,2225.00
2023-03-29T07:27:47.855Z,2219.00
2023-03-29T07:31:47.874Z,2221.00
2023-03-29T07:35:48.236Z,2209.00
2023-03-29T07:39:48.658Z,2229.00
2023-03-29T07:43:48.342Z,2179.00
2023-03-29T07:47:48.668Z,2181.00
2023-03-29T07:51:48.514Z,2107.00
2023-03-29T07:55:48.504Z,2074.00
2023-03-29T07:59:49.158Z,2026.00
2023-03-29T08:03:48.665Z,1967.00
2023-03-29T08:07:48.729Z,1922.00
2023-03-29T08:11:48.834Z,1882.00
2023-03-29T08:15:48.933Z,1863.00
2023-03-29T08:19:51.309Z,1804.00
2023-03-29T08:23:49.076Z,1767.00
2023-03-29T08:27:49.010Z,1726.00
2023-03-29T08:31:56.191Z,1715.00
2023-03-29T08:35:48.971Z,1700.00
2023-03-29T08:39:49.203Z,1663.00
2023-03-29T08:43:48.880Z,1614.00
2023-03-29T08:47:49.235Z,1598.00
2023-03-29T08:51:49.197Z,1582.00
2023-03-29T08:55:48.805Z,1548.00
2023-03-29T08:59:48.849Z,1528.00
2023-03-29T09:03:49.089Z,1522.00
2023-03-29T09:07:49.710Z,1488.00
2023-03-29T09:11:49.421Z,1453.00
2023-03-29T09:15:49.671Z,1447.00
2023-03-29T09:19:49.797Z,1423.00
2023-03-29T09:23:50.034Z,1421.00
2023-03-29T09:27:50.721Z,1412.00
2023-03-29T09:31:50.461Z,1439.00
2023-03-29T09:35:50.577Z,1490.00
2023-03-29T09:39:50.753Z,1671.00
2023-03-29T09:43:51.241Z,1762.00
2023-03-29T09:47:50.876Z,1801.00
2023-03-29T09:51:51.287Z,1784.00
2023-03-29T09:55:51.093Z,1718.00
2023-03-29T09:59:51.239Z,1694.00
2023-03-29T10:03:51.424Z,1684.00
2023-03-29T10:07:52.231Z,1673.00
2023-03-29T10:11:51.727Z,1648.00
2023-03-29T10:15:51.918Z,1609.00
2023-03-29T10:19:52.091Z,1634.00
2023-03-29T10:23:52.283Z,1619.00
2023-03-29T10:27:52.490Z,1596.00
2023-03-29T10:31:52.818Z,1554.00
2023-03-29T10:35:53.278Z,1534.00
2023-03-29T10:39:53.229Z,1504.00
2023-03-29T10:43:53.074Z,1554.00
2023-03-29T10:47:53.198Z,1650.00
2023-03-29T10:52:00.778Z,1710.00
2023-03-29T10:55:53.230Z,1755.00
2023-03-29T10:59:53.227Z,1814.00
2023-03-29T11:03:53.364Z,1855.00
2023-03-29T11:07:53.132Z,1861.00
2023-03-29T11:12:01.254Z,1960.00
2023-03-29T11:15:54.111Z,1929.00
2023-03-29T11:19:53.119Z,1900.00
2023-03-29T11:23:53.056Z,1955.00
2023-03-29T11:27:54.306Z,1941.00
2023-03-29T11:31:53.757Z,2004.00
2023-03-29T11:35:53.391Z,1981.00
2023-03-29T11:39:53.587Z,1919.00
2023-03-29T11:43:55.078Z,1842.00
2023-03-29T11:47:53.811Z,1837.00
2023-03-29T11:51:53.702Z,1815.00
2023-03-29T11:55:53.694Z,1763.00
2023-03-29T11:59:53.645Z,1720.00
2023-03-29T12:03:53.745Z,1730.00
2023-03-29T12:07:53.588Z,1650.00
2023-03-29T12:11:53.551Z,1630.00
2023-03-29T12:15:53.498Z,1649.00
2023-03-29T12:19:53.517Z,1656.00
2023-03-29T12:23:53.439Z,1634.00
2023-03-29T12:27:53.425Z,1629.00
2023-03-29T12:31:53.483Z,1576.00
2023-03-29T12:35:53.618Z,1557.00
2023-03-29T12:39:53.758Z,1529.00
2023-03-29T12:43:53.952Z,1495.00
2023-03-29T12:47:54.072Z,1523.00
2023-03-29T12:51:54.258Z,1471.00
2023-03-29T12:55:54.358Z,1436.00
2023-03-29T12:59:54.473Z,1440.00
2023-03-29T13:03:54.570Z,1455.00
2023-03-29T13:07:54.657Z,1437.00
2023-03-29T13:11:54.726Z,1410.00
2023-03-29T13:15:54.851Z,1384.00
2023-03-29T13:19:54.868Z,1448.00
2023-03-29T13:23:54.872Z,1437.00
2023-03-29T13:27:54.877Z,1387.00
2023-03-29T13:31:54.878Z,1338.00
2023-03-29T13:35:54.921Z,1379.00
2023-03-29T13:39:54.846Z,1355.00
2023-03-29T13:43:54.904Z,1353.00
2023-03-29T13:48:04.529Z,1305.00
2023-03-29T13:51:55.843Z,1291.00
2023-03-29T13:55:54.861Z,1281.00
2023-03-29T13:59:54.815Z,1279.00
2023-03-29T14:03:54.727Z,1267.00
2023-03-29T14:07:54.733Z,1243.00
2023-03-29T14:11:54.706Z,1180.00
2023-03-29T14:15:54.672Z,1201.00
2023-03-29T14:19:54.718Z,1227.00
2023-03-29T14:23:54.770Z,1217.00
2023-03-29T14:27:54.797Z,1243.00
2023-03-29T14:31:54.907Z,1190.00
2023-03-29T14:35:54.981Z,1181.00
2023-03-29T14:39:55.018Z,1184.00
2023-03-29T14:43:55.108Z,1170.00
2023-03-29T14:47:55.191Z,1121.00
2023-03-29T14:51:55.213Z,1097.00
2023-03-29T14:55:55.315Z,1078.00
2023-03-29T14:59:55.408Z,1116.00
2023-03-29T15:03:55.595Z,1136.00
2023-03-29T15:07:55.441Z,1121.00
2023-03-29T15:11:55.560Z,1139.00
2023-03-29T15:15:55.499Z,1166.00
2023-03-29T15:19:55.424Z,1126.00
2023-03-29T15:23:55.408Z,1123.00
2023-03-29T15:27:55.396Z,1118.00
2023-03-29T15:31:55.436Z,1137.00
2023-03-29T15:35:55.306Z,1083.00
2023-03-29T15:39:55.282Z,1089.00
2023-03-29T15:43:55.286Z,1113.00
2023-03-29T15:47:55.397Z,1131.00
2023-03-29T15:51:55.158Z,1123.00
2023-03-29T15:55:55.354Z,1111.00
2023-03-29T15:59:55.107Z,1137.00
2023-03-29T16:03:55.048Z,1131.00
2023-03-29T16:07:55.009Z,1129.00
2023-03-29T16:11:54.995Z,1135.00
2023-03-29T16:15:54.936Z,1132.00
2023-03-29T16:19:54.890Z,1128.00
2023-03-29T16:23:54.895Z,1109.00
2023-03-29T16:27:54.798Z,1100.00
2023-03-29T16:31:54.949Z,1098.00
2023-03-29T16:35:54.854Z,1138.00
2023-03-29T16:39:54.824Z,1141.00
2023-03-29T16:43:54.923Z,1145.00
2023-03-29T16:47:55.067Z,1122.00
2023-03-29T16:51:55.312Z,1143.00
2023-03-29T16:55:55.199Z,1150.00
2023-03-29T16:59:55.322Z,1156.00
2023-03-29T17:03:55.379Z,1157.00
2023-03-29T17:07:55.494Z,1161.00
2023-03-29T17:11:55.551Z,1145.00
2023-03-29T17:15:55.697Z,1174.00
2023-03-29T17:19:55.823Z,1137.00
2023-03-29T17:23:55.993Z,1138.00
2023-03-29T17:27:56.145Z,1147.00
2023-03-29T17:31:56.288Z,1124.00
2023-03-29T17:35:56.508Z,1098.00
2023-03-29T17:39:56.629Z,1054.00
2023-03-29T17:43:56.769Z,1043.00
2023-03-29T17:47:56.994Z,1053.00
2023-03-29T17:51:57.110Z,1047.00
2023-03-29T17:55:57.270Z,1065.00
2023-03-29T17:59:57.462Z,1031.00
2023-03-29T18:03:57.606Z,1041.00
2023-03-29T18:07:57.798Z,990.00
2023-03-29T18:11:58.006Z,1020.00
2023-03-29T18:15:57.984Z,1004.00
2023-03-29T18:19:57.901Z,984.00
2023-03-29T18:23:57.896Z,936.00
2023-03-29T18:27:57.878Z,967.00
2023-03-29T18:31:57.851Z,929.00
2023-03-29T18:35:57.847Z,909.00
2023-03-29T18:39:57.778Z,894.00
2023-03-29T18:43:57.701Z,890.00
2023-03-29T18:47:57.743Z,858.00
2023-03-29T18:51:57.670Z,833.00
2023-03-29T18:55:57.779Z,865.00
2023-03-29T18:59:57.777Z,874.00
2023-03-29T19:03:57.783Z,821.00
2023-03-29T19:07:57.710Z,860.00
2023-03-29T19:11:57.658Z,854.00
2023-03-29T19:15:57.649Z,848.00
2023-03-29T19:19:57.587Z,844.00
2023-03-29T19:23:57.525Z,832.00
2023-03-29T19:27:57.553Z,826.00
2023-03-29T19:31:57.489Z,808.00
2023-03-29T19:35:57.590Z,795.00
2023-03-29T19:39:57.716Z,781.00
2023-03-29T19:43:57.911Z,771.00
2023-03-29T19:47:58.070Z,770.00
2023-03-29T19:51:58.139Z,759.00
2023-03-29T19:55:58.214Z,739.00
2023-03-29T19:59:58.269Z,727.00
2023-03-29T20:03:58.372Z,719.00
2023-03-29T20:07:58.473Z,687.00
2023-03-29T20:11:58.592Z,683.00
2023-03-29T20:15:58.750Z,684.00
2023-03-29T20:19:58.772Z,672.00
2023-03-29T20:23:58.800Z,667.00
2023-03-29T20:27:58.773Z,662.00
2023-03-29T20:31:58.789Z,656.00
2023-03-29T20:35:58.799Z,648.00
2023-03-29T20:39:58.770Z,651.00
2023-03-29T20:43:58.746Z,645.00
2023-03-29T20:47:58.718Z,641.00
2023-03-29T20:51:58.812Z,636.00
2023-03-29T20:55:58.732Z,630.00
2023-03-29T20:59:58.730Z,628.00
2023-03-29T21:03:58.771Z,626.00
2023-03-29T21:07:58.732Z,626.00
2023-03-29T21:11:58.722Z,617.00
2023-03-29T21:15:58.732Z,612.00
2023-03-29T21:19:58.718Z,609.00
2023-03-29T21:23:58.755Z,606.00
2023-03-29T21:27:58.765Z,598.00
2023-03-29T21:31:58.910Z,594.00
2023-03-29T21:35:58.887Z,589.00
2023-03-29T21:39:58.846Z,590.00
2023-03-29T21:43:58.867Z,586.00
2023-03-29T21:47:58.962Z,583.00
2023-03-29T21:51:58.997Z,580.00
2023-03-29T21:55:59.010Z,577.00
2023-03-29T21:59:59.093Z,577.00
2023-03-29T22:03:59.109Z,570.00
2023-03-29T22:07:59.144Z,571.00
2023-03-29T22:11:59.221Z,568.00
2023-03-29T22:15:59.396Z,564.00
2023-03-29T22:19:59.292Z,568.00
2023-03-29T22:23:59.333Z,572.00
2023-03-29T22:27:59.379Z,570.00
2023-03-29T22:31:59.476Z,565.00
2023-03-29T22:35:59.541Z,568.00
2023-03-29T22:39:59.556Z,562.00
2023-03-29T22:43:59.587Z,559.00
2023-03-29T22:47:59.625Z,563.00
2023-03-29T22:51:59.671Z,558.00
2023-03-29T22:55:59.661Z,551.00
2023-03-29T22:59:59.730Z,550.00
2023-03-29T23:03:59.828Z,547.00
2023-03-29T23:07:59.847Z,547.00
2023-03-29T23:11:59.831Z,546.00
2023-03-29T23:16:00.059Z,542.00
2023-03-29T23:19:59.937Z,543.00
2023-03-29T23:24:00.044Z,539.00
2023-03-29T23:28:00.069Z,535.00
2023-03-29T23:32:00.155Z,532.00
2023-03-29T23:36:00.220Z,529.00
2023-03-29T23:40:00.246Z,531.00
2023-03-29T23:44:00.260Z,528.00
2023-03-29T23:48:00.386Z,523.00
2023-03-29T23:52:00.466Z,529.00
2023-03-29T23:56:00.578Z,523.00
